sensor_id;sensor_type;location;lat;lon;timestamp;P1;durP1;ratioP1;P2;durP2;ratioP2
17741;SDS011;8993;51.822;-2.268;2024-01-16T00:01:55;8.77;;;2.52;;
17741;SDS011;8993;51.822;-2.268;2024-01-16T00:07:00;8.03;;;2.70;;
17741;SDS011;8993;51.822;-2.268;2024-01-16T00:12:04;8.94;;;2.46;;
17741;SDS011;8993;51.822;-2.268;2024-01-16T00:17:09;6.86;;;2.36;;
17741;SDS011;8993;51.822;-2.268;2024-01-16T00:22:13;7.70;;;2.34;;
17741;SDS011;8993;51.822;-2.268;2024-01-16T00:27:17;10.92;;;2.74;;
17741;SDS011;8993;51.822;-2.268;2024-01-16T00:32:21;11.40;;;2.70;;
17741;SDS011;8993;51.822;-2.268;2024-01-16T00:37:25;14.56;;;3.13;;
17741;SDS011;8993;51.822;-2.268;2024-01-16T00:42:29;11.66;;;3.19;;
17741;SDS011;8993;51.822;-2.268;2024-01-16T00:47:34;11.15;;;2.82;;
17741;SDS011;8993;51.822;-2.268;2024-01-16T00:52:38;11.17;;;3.16;;
17741;SDS011;8993;51.822;-2.268;2024-01-16T00:57:42;13.72;;;3.69;;
17741;SDS011;8993;51.822;-2.268;2024-01-16T01:02:46;11.75;;;3.05;;
17741;SDS011;8993;51.822;-2.268;2024-01-16T01:07:51;14.09;;;3.12;;
17741;SDS011;8993;51.822;-2.268;2024-01-16T01:12:55;11.46;;;3.14;;
17741;SDS011;8993;51.822;-2.268;2024-01-16T01:17:59;9.66;;;2.82;;
17741;SDS011;8993;51.822;-2.268;2024-01-16T01:23:03;14.83;;;3.73;;
17741;SDS011;8993;51.822;-2.268;2024-01-16T01:28:08;11.40;;;3.12;;
17741;SDS011;8993;51.822;-2.268;2024-01-16T01:33:12;11.13;;;3.15;;
17741;SDS011;8993;51.822;-2.268;2024-01-16T01:38:16;13.92;;;3.23;;
17741;SDS011;8993;51.822;-2.268;2024-01-16T01:43:20;10.61;;;3.06;;
17741;SDS011;8993;51.822;-2.268;2024-01-16T01:48:24;12.01;;;3.31;;
17741;SDS011;8993;51.822;-2.268;2024-01-16T01:53:29;10.18;;;2.83;;
17741;SDS011;8993;51.822;-2.268;2024-01-16T01:58:33;9.42;;;2.71;;
17741;SDS011;8993;51.822;-2.268;2024-01-16T02:03:39;10.89;;;3.23;;
17741;SDS011;8993;51.822;-2.268;2024-01-16T02:08:42;9.17;;;2.94;;
17741;SDS011;8993;51.822;-2.268;2024-01-16T02:13:46;11.81;;;3.12;;
17741;SDS011;8993;51.822;-2.268;2024-01-16T02:18:51;11.57;;;3.20;;
17741;SDS011;8993;51.822;-2.268;2024-01-16T02:23:55;10.01;;;2.77;;
17741;SDS011;8993;51.822;-2.268;2024-01-16T02:29:00;6.53;;;2.58;;
17741;SDS011;8993;51.822;-2.268;2024-01-16T02:34:03;9.34;;;3.21;;
17741;SDS011;8993;51.822;-2.268;2024-01-16T02:39:07;10.65;;;3.23;;
17741;SDS011;8993;51.822;-2.268;2024-01-16T02:44:11;10.24;;;3.31;;
17741;SDS011;8993;51.822;-2.268;2024-01-16T02:49:16;8.93;;;3.12;;
17741;SDS011;8993;51.822;-2.268;2024-01-16T02:54:21;11.68;;;3.15;;
17741;SDS011;8993;51.822;-2.268;2024-01-16T02:59:24;11.86;;;3.35;;
17741;SDS011;8993;51.822;-2.268;2024-01-16T03:04:29;10.12;;;3.18;;
17741;SDS011;8993;51.822;-2.268;2024-01-16T03:09:33;9.53;;;3.04;;
17741;SDS011;8993;51.822;-2.268;2024-01-16T03:14:38;10.36;;;3.51;;
17741;SDS011;8993;51.822;-2.268;2024-01-16T03:19:42;12.41;;;3.64;;
17741;SDS011;8993;51.822;-2.268;2024-01-16T03:24:46;8.51;;;2.65;;
17741;SDS011;8993;51.822;-2.268;2024-01-16T03:29:50;7.99;;;2.35;;
17741;SDS011;8993;51.822;-2.268;2024-01-16T03:34:54;8.81;;;2.30;;
17741;SDS011;8993;51.822;-2.268;2024-01-16T03:39:59;5.39;;;2.08;;
17741;SDS011;8993;51.822;-2.268;2024-01-16T03:45:03;7.68;;;1.88;;
17741;SDS011;8993;51.822;-2.268;2024-01-16T03:50:07;10.54;;;2.12;;
17741;SDS011;8993;51.822;-2.268;2024-01-16T03:55:12;6.97;;;1.80;;
17741;SDS011;8993;51.822;-2.268;2024-01-16T04:00:16;8.85;;;1.99;;
17741;SDS011;8993;51.822;-2.268;2024-01-16T04:05:21;6.59;;;1.73;;
17741;SDS011;8993;51.822;-2.268;2024-01-16T04:10:25;7.00;;;1.61;;
17741;SDS011;8993;51.822;-2.268;2024-01-16T04:15:30;4.48;;;1.32;;
17741;SDS011;8993;51.822;-2.268;2024-01-16T04:20:34;5.43;;;1.40;;
17741;SDS011;8993;51.822;-2.268;2024-01-16T04:25:38;6.75;;;1.44;;
17741;SDS011;8993;51.822;-2.268;2024-01-16T04:30:42;8.49;;;1.35;;
17741;SDS011;8993;51.822;-2.268;2024-01-16T04:35:47;6.67;;;1.35;;
17741;SDS011;8993;51.822;-2.268;2024-01-16T04:40:51;7.49;;;2.12;;
17741;SDS011;8993;51.822;-2.268;2024-01-16T04:45:55;11.38;;;3.06;;
17741;SDS011;8993;51.822;-2.268;2024-01-16T04:50:59;13.30;;;3.46;;
17741;SDS011;8993;51.822;-2.268;2024-01-16T04:56:04;13.69;;;4.18;;
17741;SDS011;8993;51.822;-2.268;2024-01-16T05:01:08;13.79;;;4.24;;
17741;SDS011;8993;51.822;-2.268;2024-01-16T05:06:12;12.95;;;4.34;;
17741;SDS011;8993;51.822;-2.268;2024-01-16T05:11:16;14.21;;;4.80;;
17741;SDS011;8993;51.822;-2.268;2024-01-16T05:16:20;15.09;;;5.24;;
17741;SDS011;8993;51.822;-2.268;2024-01-16T05:21:25;14.41;;;5.74;;
17741;SDS011;8993;51.822;-2.268;2024-01-16T05:26:29;15.00;;;6.09;;
17741;SDS011;8993;51.822;-2.268;2024-01-16T05:31:34;16.14;;;5.88;;
17741;SDS011;8993;51.822;-2.268;2024-01-16T05:36:37;15.22;;;5.98;;
17741;SDS011;8993;51.822;-2.268;2024-01-16T05:41:41;14.80;;;6.00;;
17741;SDS011;8993;51.822;-2.268;2024-01-16T05:46:46;15.11;;;5.82;;
17741;SDS011;8993;51.822;-2.268;2024-01-16T05:51:50;15.12;;;5.41;;
17741;SDS011;8993;51.822;-2.268;2024-01-16T05:56:54;13.67;;;5.04;;
17741;SDS011;8993;51.822;-2.268;2024-01-16T06:01:58;11.84;;;5.03;;
17741;SDS011;8993;51.822;-2.268;2024-01-16T06:07:05;15.87;;;4.78;;
17741;SDS011;8993;51.822;-2.268;2024-01-16T06:12:10;12.88;;;4.40;;
17741;SDS011;8993;51.822;-2.268;2024-01-16T06:17:14;11.08;;;4.09;;
17741;SDS011;8993;51.822;-2.268;2024-01-16T06:22:18;11.47;;;3.62;;
17741;SDS011;8993;51.822;-2.268;2024-01-16T06:27:23;12.43;;;3.55;;
17741;SDS011;8993;51.822;-2.268;2024-01-16T06:32:27;10.76;;;3.33;;
17741;SDS011;8993;51.822;-2.268;2024-01-16T06:37:31;11.25;;;2.78;;
17741;SDS011;8993;51.822;-2.268;2024-01-16T06:42:35;8.26;;;2.72;;
17741;SDS011;8993;51.822;-2.268;2024-01-16T06:47:39;8.78;;;2.35;;
17741;SDS011;8993;51.822;-2.268;2024-01-16T06:52:43;10.17;;;2.54;;
17741;SDS011;8993;51.822;-2.268;2024-01-16T06:57:47;8.77;;;2.34;;
17741;SDS011;8993;51.822;-2.268;2024-01-16T07:02:52;8.86;;;2.61;;
17741;SDS011;8993;51.822;-2.268;2024-01-16T07:07:56;7.92;;;2.75;;
17741;SDS011;8993;51.822;-2.268;2024-01-16T07:13:00;8.18;;;2.66;;
17741;SDS011;8993;51.822;-2.268;2024-01-16T07:18:05;7.22;;;2.20;;
17741;SDS011;8993;51.822;-2.268;2024-01-16T07:23:14;7.13;;;2.11;;
17741;SDS011;8993;51.822;-2.268;2024-01-16T07:28:19;10.62;;;2.36;;
17741;SDS011;8993;51.822;-2.268;2024-01-16T07:33:22;8.81;;;2.10;;
17741;SDS011;8993;51.822;-2.268;2024-01-16T07:38:26;7.84;;;2.19;;
17741;SDS011;8993;51.822;-2.268;2024-01-16T07:43:31;7.73;;;2.04;;
17741;SDS011;8993;51.822;-2.268;2024-01-16T07:48:35;9.52;;;2.25;;
17741;SDS011;8993;51.822;-2.268;2024-01-16T07:53:39;6.43;;;2.35;;
17741;SDS011;8993;51.822;-2.268;2024-01-16T07:58:43;11.16;;;2.97;;
17741;SDS011;8993;51.822;-2.268;2024-01-16T08:03:48;11.41;;;2.72;;
17741;SDS011;8993;51.822;-2.268;2024-01-16T08:08:52;10.79;;;2.94;;
17741;SDS011;8993;51.822;-2.268;2024-01-16T08:13:56;11.25;;;3.31;;
17741;SDS011;8993;51.822;-2.268;2024-01-16T08:19:00;9.77;;;3.30;;
17741;SDS011;8993;51.822;-2.268;2024-01-16T08:24:04;13.28;;;3.45;;
17741;SDS011;8993;51.822;-2.268;2024-01-16T08:29:09;12.60;;;3.46;;
17741;SDS011;8993;51.822;-2.268;2024-01-16T08:34:13;11.30;;;3.25;;
17741;SDS011;8993;51.822;-2.268;2024-01-16T08:39:17;11.08;;;3.40;;
17741;SDS011;8993;51.822;-2.268;2024-01-16T08:44:21;10.96;;;3.71;;
17741;SDS011;8993;51.822;-2.268;2024-01-16T08:49:25;10.45;;;3.49;;
17741;SDS011;8993;51.822;-2.268;2024-01-16T08:54:30;11.02;;;4.01;;
17741;SDS011;8993;51.822;-2.268;2024-01-16T08:59:34;10.68;;;3.97;;
17741;SDS011;8993;51.822;-2.268;2024-01-16T09:04:38;12.34;;;4.62;;
17741;SDS011;8993;51.822;-2.268;2024-01-16T09:09:43;12.43;;;4.74;;
17741;SDS011;8993;51.822;-2.268;2024-01-16T09:14:48;12.56;;;4.37;;
17741;SDS011;8993;51.822;-2.268;2024-01-16T09:19:52;11.71;;;4.20;;
17741;SDS011;8993;51.822;-2.268;2024-01-16T09:24:56;13.37;;;4.11;;
17741;SDS011;8993;51.822;-2.268;2024-01-16T09:30:01;12.22;;;3.73;;
17741;SDS011;8993;51.822;-2.268;2024-01-16T09:35:05;10.92;;;3.73;;
17741;SDS011;8993;51.822;-2.268;2024-01-16T09:40:12;9.39;;;4.13;;
17741;SDS011;8993;51.822;-2.268;2024-01-16T09:45:19;13.82;;;4.47;;
17741;SDS011;8993;51.822;-2.268;2024-01-16T09:50:22;14.03;;;4.08;;
17741;SDS011;8993;51.822;-2.268;2024-01-16T09:55:25;13.71;;;4.33;;
17741;SDS011;8993;51.822;-2.268;2024-01-16T10:00:29;13.75;;;4.23;;
17741;SDS011;8993;51.822;-2.268;2024-01-16T10:05:33;11.65;;;4.23;;
17741;SDS011;8993;51.822;-2.268;2024-01-16T10:10:37;13.27;;;4.71;;
17741;SDS011;8993;51.822;-2.268;2024-01-16T10:15:42;14.58;;;5.01;;
17741;SDS011;8993;51.822;-2.268;2024-01-16T10:20:46;12.17;;;4.53;;
17741;SDS011;8993;51.822;-2.268;2024-01-16T10:31:00;12.63;;;4.91;;
17741;SDS011;8993;51.822;-2.268;2024-01-16T10:36:07;15.00;;;5.25;;
17741;SDS011;8993;51.822;-2.268;2024-01-16T10:41:05;15.29;;;5.41;;
17741;SDS011;8993;51.822;-2.268;2024-01-16T10:46:08;14.13;;;4.62;;
17741;SDS011;8993;51.822;-2.268;2024-01-16T10:51:14;14.51;;;5.17;;
17741;SDS011;8993;51.822;-2.268;2024-01-16T10:56:16;13.30;;;5.02;;
17741;SDS011;8993;51.822;-2.268;2024-01-16T11:01:20;14.11;;;4.92;;
17741;SDS011;8993;51.822;-2.268;2024-01-16T11:06:24;11.62;;;4.70;;
17741;SDS011;8993;51.822;-2.268;2024-01-16T11:11:29;13.58;;;4.61;;
17741;SDS011;8993;51.822;-2.268;2024-01-16T11:16:33;13.21;;;4.58;;
17741;SDS011;8993;51.822;-2.268;2024-01-16T11:21:37;11.47;;;4.41;;
17741;SDS011;8993;51.822;-2.268;2024-01-16T11:26:41;13.75;;;4.72;;
17741;SDS011;8993;51.822;-2.268;2024-01-16T11:31:46;13.66;;;4.49;;
17741;SDS011;8993;51.822;-2.268;2024-01-16T11:36:50;12.32;;;4.04;;
17741;SDS011;8993;51.822;-2.268;2024-01-16T11:41:54;13.21;;;3.51;;
17741;SDS011;8993;51.822;-2.268;2024-01-16T11:47:00;13.76;;;3.57;;
17741;SDS011;8993;51.822;-2.268;2024-01-16T11:52:03;12.47;;;3.46;;
17741;SDS011;8993;51.822;-2.268;2024-01-16T12:02:12;14.64;;;3.09;;
17741;SDS011;8993;51.822;-2.268;2024-01-16T12:07:16;12.64;;;3.12;;
17741;SDS011;8993;51.822;-2.268;2024-01-16T12:12:20;13.71;;;3.10;;
17741;SDS011;8993;51.822;-2.268;2024-01-16T12:17:24;8.42;;;2.78;;
17741;SDS011;8993;51.822;-2.268;2024-01-16T12:22:28;11.96;;;2.82;;
17741;SDS011;8993;51.822;-2.268;2024-01-16T12:27:33;10.61;;;2.53;;
17741;SDS011;8993;51.822;-2.268;2024-01-16T12:32:37;9.12;;;2.23;;
17741;SDS011;8993;51.822;-2.268;2024-01-16T12:37:41;10.17;;;2.09;;
17741;SDS011;8993;51.822;-2.268;2024-01-16T12:42:45;9.67;;;2.22;;
17741;SDS011;8993;51.822;-2.268;2024-01-16T12:47:50;11.40;;;2.26;;
17741;SDS011;8993;51.822;-2.268;2024-01-16T12:53:01;11.04;;;2.34;;
17741;SDS011;8993;51.822;-2.268;2024-01-16T13:03:03;10.21;;;2.35;;
17741;SDS011;8993;51.822;-2.268;2024-01-16T13:08:07;11.05;;;2.07;;
17741;SDS011;8993;51.822;-2.268;2024-01-16T13:13:12;7.30;;;1.43;;
17741;SDS011;8993;51.822;-2.268;2024-01-16T13:18:17;7.14;;;1.39;;
17741;SDS011;8993;51.822;-2.268;2024-01-16T13:23:20;7.06;;;1.33;;
17741;SDS011;8993;51.822;-2.268;2024-01-16T13:28:25;8.70;;;1.27;;
17741;SDS011;8993;51.822;-2.268;2024-01-16T13:33:28;6.55;;;1.20;;
17741;SDS011;8993;51.822;-2.268;2024-01-16T13:38:32;6.42;;;1.17;;
17741;SDS011;8993;51.822;-2.268;2024-01-16T13:43:37;5.82;;;1.00;;
17741;SDS011;8993;51.822;-2.268;2024-01-16T13:48:41;6.83;;;0.95;;
17741;SDS011;8993;51.822;-2.268;2024-01-16T13:53:46;6.99;;;1.09;;
17741;SDS011;8993;51.822;-2.268;2024-01-16T13:58:50;5.79;;;1.08;;
17741;SDS011;8993;51.822;-2.268;2024-01-16T14:03:54;6.68;;;1.18;;
17741;SDS011;8993;51.822;-2.268;2024-01-16T14:08:58;6.54;;;1.07;;
17741;SDS011;8993;51.822;-2.268;2024-01-16T14:14:02;5.56;;;1.31;;
17741;SDS011;8993;51.822;-2.268;2024-01-16T14:19:06;4.88;;;1.07;;
17741;SDS011;8993;51.822;-2.268;2024-01-16T14:24:11;4.94;;;1.16;;
17741;SDS011;8993;51.822;-2.268;2024-01-16T14:29:16;6.12;;;1.02;;
17741;SDS011;8993;51.822;-2.268;2024-01-16T14:34:20;6.25;;;1.45;;
17741;SDS011;8993;51.822;-2.268;2024-01-16T14:39:24;6.92;;;1.25;;
17741;SDS011;8993;51.822;-2.268;2024-01-16T14:44:28;5.58;;;1.09;;
17741;SDS011;8993;51.822;-2.268;2024-01-16T14:49:32;5.57;;;1.12;;
17741;SDS011;8993;51.822;-2.268;2024-01-16T14:54:36;5.26;;;1.07;;
17741;SDS011;8993;51.822;-2.268;2024-01-16T14:59:41;6.45;;;0.97;;
17741;SDS011;8993;51.822;-2.268;2024-01-16T15:04:44;4.18;;;0.92;;
17741;SDS011;8993;51.822;-2.268;2024-01-16T15:09:48;6.20;;;1.09;;
17741;SDS011;8993;51.822;-2.268;2024-01-16T15:14:53;7.10;;;1.00;;
17741;SDS011;8993;51.822;-2.268;2024-01-16T15:19:57;3.92;;;1.03;;
17741;SDS011;8993;51.822;-2.268;2024-01-16T15:25:01;5.31;;;1.16;;
17741;SDS011;8993;51.822;-2.268;2024-01-16T15:30:06;8.04;;;1.52;;
17741;SDS011;8993;51.822;-2.268;2024-01-16T15:35:10;6.53;;;1.53;;
17741;SDS011;8993;51.822;-2.268;2024-01-16T15:40:14;6.77;;;1.75;;
17741;SDS011;8993;51.822;-2.268;2024-01-16T15:45:18;6.15;;;1.63;;
17741;SDS011;8993;51.822;-2.268;2024-01-16T15:50:22;7.10;;;1.87;;
17741;SDS011;8993;51.822;-2.268;2024-01-16T15:55:27;8.67;;;2.29;;
17741;SDS011;8993;51.822;-2.268;2024-01-16T16:00:31;9.20;;;1.62;;
17741;SDS011;8993;51.822;-2.268;2024-01-16T16:05:36;6.98;;;1.62;;
17741;SDS011;8993;51.822;-2.268;2024-01-16T16:10:40;7.33;;;1.85;;
17741;SDS011;8993;51.822;-2.268;2024-01-16T16:15:45;8.61;;;1.90;;
17741;SDS011;8993;51.822;-2.268;2024-01-16T16:20:49;10.18;;;1.79;;
17741;SDS011;8993;51.822;-2.268;2024-01-16T16:25:56;14.71;;;2.39;;
17741;SDS011;8993;51.822;-2.268;2024-01-16T16:30:58;12.11;;;2.09;;
17741;SDS011;8993;51.822;-2.268;2024-01-16T16:36:02;12.47;;;2.15;;
17741;SDS011;8993;51.822;-2.268;2024-01-16T16:41:06;11.18;;;2.14;;
17741;SDS011;8993;51.822;-2.268;2024-01-16T16:46:12;6.48;;;1.97;;
17741;SDS011;8993;51.822;-2.268;2024-01-16T16:51:15;10.56;;;2.65;;
17741;SDS011;8993;51.822;-2.268;2024-01-16T16:56:19;12.70;;;3.21;;
17741;SDS011;8993;51.822;-2.268;2024-01-16T17:01:23;11.48;;;3.35;;
17741;SDS011;8993;51.822;-2.268;2024-01-16T17:06:27;11.67;;;3.10;;
17741;SDS011;8993;51.822;-2.268;2024-01-16T17:11:31;9.43;;;3.11;;
17741;SDS011;8993;51.822;-2.268;2024-01-16T17:16:35;8.48;;;2.65;;
17741;SDS011;8993;51.822;-2.268;2024-01-16T17:21:39;9.73;;;2.67;;
17741;SDS011;8993;51.822;-2.268;2024-01-16T17:26:43;9.08;;;2.47;;
17741;SDS011;8993;51.822;-2.268;2024-01-16T17:31:48;9.04;;;2.11;;
17741;SDS011;8993;51.822;-2.268;2024-01-16T17:36:52;8.88;;;2.06;;
17741;SDS011;8993;51.822;-2.268;2024-01-16T17:41:56;9.43;;;2.26;;
17741;SDS011;8993;51.822;-2.268;2024-01-16T17:47:01;7.90;;;1.96;;
17741;SDS011;8993;51.822;-2.268;2024-01-16T17:52:05;8.12;;;2.05;;
17741;SDS011;8993;51.822;-2.268;2024-01-16T17:57:09;6.28;;;1.76;;
17741;SDS011;8993;51.822;-2.268;2024-01-16T18:02:13;6.63;;;1.82;;
17741;SDS011;8993;51.822;-2.268;2024-01-16T18:07:18;7.07;;;2.19;;
17741;SDS011;8993;51.822;-2.268;2024-01-16T18:12:22;8.52;;;2.15;;
17741;SDS011;8993;51.822;-2.268;2024-01-16T18:17:26;8.13;;;2.44;;
17741;SDS011;8993;51.822;-2.268;2024-01-16T18:22:33;6.44;;;2.31;;
17741;SDS011;8993;51.822;-2.268;2024-01-16T18:27:37;8.66;;;2.39;;
17741;SDS011;8993;51.822;-2.268;2024-01-16T18:32:42;6.83;;;2.41;;
17741;SDS011;8993;51.822;-2.268;2024-01-16T18:37:46;9.76;;;2.44;;
17741;SDS011;8993;51.822;-2.268;2024-01-16T18:42:50;7.51;;;2.41;;
17741;SDS011;8993;51.822;-2.268;2024-01-16T18:47:55;7.57;;;2.57;;
17741;SDS011;8993;51.822;-2.268;2024-01-16T18:52:59;9.11;;;2.79;;
17741;SDS011;8993;51.822;-2.268;2024-01-16T18:58:03;9.86;;;3.09;;
17741;SDS011;8993;51.822;-2.268;2024-01-16T19:03:07;9.14;;;3.29;;
17741;SDS011;8993;51.822;-2.268;2024-01-16T19:08:12;8.49;;;3.72;;
17741;SDS011;8993;51.822;-2.268;2024-01-16T19:13:16;11.24;;;3.93;;
17741;SDS011;8993;51.822;-2.268;2024-01-16T19:18:20;9.73;;;3.42;;
17741;SDS011;8993;51.822;-2.268;2024-01-16T19:23:24;9.45;;;3.93;;
17741;SDS011;8993;51.822;-2.268;2024-01-16T19:28:29;9.21;;;3.75;;
17741;SDS011;8993;51.822;-2.268;2024-01-16T19:33:32;10.36;;;3.74;;
17741;SDS011;8993;51.822;-2.268;2024-01-16T19:38:36;9.08;;;3.76;;
17741;SDS011;8993;51.822;-2.268;2024-01-16T19:43:43;10.68;;;3.72;;
17741;SDS011;8993;51.822;-2.268;2024-01-16T19:48:47;8.81;;;3.49;;
17741;SDS011;8993;51.822;-2.268;2024-01-16T19:53:51;9.67;;;3.51;;
17741;SDS011;8993;51.822;-2.268;2024-01-16T19:58:55;10.01;;;3.52;;
17741;SDS011;8993;51.822;-2.268;2024-01-16T20:04:00;10.24;;;3.88;;
17741;SDS011;8993;51.822;-2.268;2024-01-16T20:09:04;11.51;;;4.20;;
17741;SDS011;8993;51.822;-2.268;2024-01-16T20:14:08;13.94;;;4.85;;
17741;SDS011;8993;51.822;-2.268;2024-01-16T20:19:13;12.59;;;4.75;;
17741;SDS011;8993;51.822;-2.268;2024-01-16T20:24:17;12.91;;;4.30;;
17741;SDS011;8993;51.822;-2.268;2024-01-16T20:29:22;10.90;;;4.18;;
17741;SDS011;8993;51.822;-2.268;2024-01-16T20:34:25;10.42;;;4.07;;
17741;SDS011;8993;51.822;-2.268;2024-01-16T20:39:30;10.93;;;3.93;;
17741;SDS011;8993;51.822;-2.268;2024-01-16T20:44:34;13.52;;;4.41;;
17741;SDS011;8993;51.822;-2.268;2024-01-16T20:49:39;11.05;;;3.98;;
17741;SDS011;8993;51.822;-2.268;2024-01-16T20:54:43;11.35;;;4.24;;
17741;SDS011;8993;51.822;-2.268;2024-01-16T20:59:47;10.11;;;4.01;;
17741;SDS011;8993;51.822;-2.268;2024-01-16T21:04:52;12.10;;;4.22;;
17741;SDS011;8993;51.822;-2.268;2024-01-16T21:09:56;11.48;;;4.18;;
17741;SDS011;8993;51.822;-2.268;2024-01-16T21:15:00;12.13;;;3.85;;
17741;SDS011;8993;51.822;-2.268;2024-01-16T21:20:05;11.45;;;4.05;;
17741;SDS011;8993;51.822;-2.268;2024-01-16T21:25:09;8.02;;;3.26;;
17741;SDS011;8993;51.822;-2.268;2024-01-16T21:30:13;9.43;;;3.37;;
17741;SDS011;8993;51.822;-2.268;2024-01-16T21:35:17;9.98;;;3.21;;
17741;SDS011;8993;51.822;-2.268;2024-01-16T21:40:21;9.82;;;3.16;;
17741;SDS011;8993;51.822;-2.268;2024-01-16T21:45:25;8.49;;;2.79;;
17741;SDS011;8993;51.822;-2.268;2024-01-16T21:50:29;8.35;;;2.54;;
17741;SDS011;8993;51.822;-2.268;2024-01-16T21:55:33;9.22;;;2.45;;
17741;SDS011;8993;51.822;-2.268;2024-01-16T22:00:38;8.74;;;2.57;;
17741;SDS011;8993;51.822;-2.268;2024-01-16T22:05:42;8.08;;;2.50;;
17741;SDS011;8993;51.822;-2.268;2024-01-16T22:10:47;7.72;;;2.48;;
17741;SDS011;8993;51.822;-2.268;2024-01-16T22:15:51;6.44;;;2.29;;
17741;SDS011;8993;51.822;-2.268;2024-01-16T22:20:55;7.06;;;2.19;;
17741;SDS011;8993;51.822;-2.268;2024-01-16T22:25:59;6.20;;;2.15;;
17741;SDS011;8993;51.822;-2.268;2024-01-16T22:31:04;7.20;;;2.16;;
17741;SDS011;8993;51.822;-2.268;2024-01-16T22:36:09;7.70;;;2.52;;
17741;SDS011;8993;51.822;-2.268;2024-01-16T22:41:13;8.89;;;2.33;;
17741;SDS011;8993;51.822;-2.268;2024-01-16T22:46:18;7.44;;;1.73;;
17741;SDS011;8993;51.822;-2.268;2024-01-16T22:51:22;7.42;;;2.17;;
17741;SDS011;8993;51.822;-2.268;2024-01-16T22:56:26;6.66;;;1.78;;
17741;SDS011;8993;51.822;-2.268;2024-01-16T23:01:30;4.55;;;1.61;;
17741;SDS011;8993;51.822;-2.268;2024-01-16T23:06:35;4.92;;;1.39;;
17741;SDS011;8993;51.822;-2.268;2024-01-16T23:11:39;5.30;;;1.58;;
17741;SDS011;8993;51.822;-2.268;2024-01-16T23:16:43;3.67;;;1.38;;
17741;SDS011;8993;51.822;-2.268;2024-01-16T23:21:48;5.07;;;1.36;;
17741;SDS011;8993;51.822;-2.268;2024-01-16T23:26:52;5.39;;;1.50;;
17741;SDS011;8993;51.822;-2.268;2024-01-16T23:31:56;3.18;;;1.09;;
17741;SDS011;8993;51.822;-2.268;2024-01-16T23:37:01;6.94;;;1.49;;
17741;SDS011;8993;51.822;-2.268;2024-01-16T23:42:05;4.65;;;1.37;;
17741;SDS011;8993;51.822;-2.268;2024-01-16T23:47:09;3.46;;;1.22;;
17741;SDS011;8993;51.822;-2.268;2024-01-16T23:52:14;2.45;;;1.07;;
17741;SDS011;8993;51.822;-2.268;2024-01-16T23:57:18;3.87;;;1.15;;
